createdAt,value
2022-08-14T00:02:56.081Z,22.90
2022-08-14T00:09:00.121Z,22.70
2022-08-14T00:15:06.100Z,22.70
2022-08-14T00:21:10.853Z,22.70
2022-08-14T00:27:13.292Z,22.80
2022-08-14T00:33:18.968Z,22.70
2022-08-14T00:39:20.940Z,22.60
2022-08-14T00:45:22.777Z,22.50
2022-08-14T00:51:25.163Z,22.40
2022-08-14T00:57:39.485Z,22.30
2022-08-14T01:03:42.550Z,22.20
2022-08-14T01:09:49.802Z,22.00
2022-08-14T01:15:58.585Z,22.10
2022-08-14T01:22:07.372Z,21.90
2022-08-14T01:28:46.671Z,21.70
2022-08-14T01:35:18.699Z,21.50
2022-08-14T01:40:58.659Z,21.70
2022-08-14T01:47:05.973Z,21.80
2022-08-14T01:53:08.241Z,21.70
2022-08-14T01:59:18.670Z,21.70
2022-08-14T02:05:21.477Z,21.70
2022-08-14T02:11:25.957Z,21.60
2022-08-14T02:17:28.380Z,21.50
2022-08-14T02:23:32.660Z,21.40
2022-08-14T02:30:00.435Z,21.40
2022-08-14T02:37:02.657Z,21.40
2022-08-14T02:42:23.536Z,21.40
2022-08-14T02:49:03.089Z,21.60
2022-08-14T02:55:05.576Z,21.60
2022-08-14T03:01:10.384Z,21.50
2022-08-14T03:07:12.232Z,21.60
2022-08-14T03:13:21.446Z,21.50
2022-08-14T03:19:23.696Z,21.10
2022-08-14T03:25:26.081Z,21.00
2022-08-14T03:31:29.465Z,20.90
2022-08-14T03:39:09.199Z,20.80
2022-08-14T03:44:01.624Z,20.80
2022-08-14T03:50:27.927Z,20.80
2022-08-14T03:56:34.169Z,20.90
2022-08-14T04:02:47.062Z,20.90
2022-08-14T04:08:50.075Z,20.80
2022-08-14T04:14:52.834Z,20.80
2022-08-14T04:20:55.845Z,20.70
2022-08-14T04:26:57.850Z,20.60
2022-08-14T04:33:10.598Z,20.60
2022-08-14T04:39:37.262Z,20.70
2022-08-14T04:45:51.002Z,20.70
2022-08-14T04:51:55.763Z,20.70
2022-08-14T04:57:58.321Z,20.70
2022-08-14T05:04:00.632Z,20.80
2022-08-14T05:10:13.017Z,20.90
2022-08-14T05:16:15.089Z,20.90
2022-08-14T05:22:19.422Z,20.90
2022-08-14T05:28:26.391Z,20.90
2022-08-14T05:34:31.882Z,21.00
2022-08-14T05:40:34.856Z,21.10
2022-08-14T05:46:37.173Z,21.10
2022-08-14T05:52:39.864Z,21.10
2022-08-14T05:58:41.785Z,21.10
2022-08-14T06:04:48.538Z,21.20
2022-08-14T06:10:53.380Z,21.30
2022-08-14T06:16:55.634Z,21.50
2022-08-14T06:22:58.488Z,21.50
2022-08-14T06:29:00.848Z,21.70
2022-08-14T06:35:13.201Z,21.80
2022-08-14T06:41:15.276Z,22.00
2022-08-14T06:47:23.173Z,22.20
2022-08-14T06:53:27.740Z,22.40
2022-08-14T06:59:30.189Z,22.60
2022-08-14T07:05:57.647Z,22.80
2022-08-14T07:12:00.633Z,23.00
2022-08-14T07:18:08.899Z,23.10
2022-08-14T07:24:21.970Z,23.30
2022-08-14T07:30:34.245Z,23.40
2022-08-14T07:36:36.906Z,23.60
2022-08-14T07:42:39.283Z,23.70
2022-08-14T07:48:44.096Z,23.90
2022-08-14T07:54:50.664Z,24.10
2022-08-14T08:00:56.707Z,24.20
2022-08-14T08:07:00.748Z,24.50
2022-08-14T08:13:15.443Z,24.70
2022-08-14T08:19:19.103Z,24.80
2022-08-14T08:25:21.435Z,25.00
2022-08-14T08:31:23.189Z,25.10
2022-08-14T08:37:40.308Z,25.20
2022-08-14T08:43:46.214Z,25.40
2022-08-14T08:49:59.502Z,25.50
2022-08-14T08:56:03.520Z,25.70
2022-08-14T09:02:10.610Z,25.80
2022-08-14T09:08:30.227Z,25.80
2022-08-14T09:14:36.448Z,25.90
2022-08-14T09:20:44.731Z,26.00
2022-08-14T09:26:49.274Z,26.20
2022-08-14T09:33:15.781Z,26.10
2022-08-14T09:39:50.011Z,26.60
2022-08-14T09:45:53.883Z,26.70
2022-08-14T09:52:05.021Z,26.90
2022-08-14T09:58:38.481Z,27.00
2022-08-14T10:04:46.057Z,27.00
2022-08-14T10:10:57.253Z,27.40
2022-08-14T10:17:08.279Z,27.40
2022-08-14T10:23:18.928Z,27.50
2022-08-14T10:29:34.579Z,27.90
2022-08-14T10:35:47.892Z,27.90
2022-08-14T10:42:16.283Z,27.90
2022-08-14T10:48:24.561Z,27.30
2022-08-14T10:54:44.192Z,27.70
2022-08-14T11:00:57.860Z,28.30
2022-08-14T11:06:59.683Z,28.60
2022-08-14T11:13:02.075Z,28.50
2022-08-14T11:19:08.470Z,28.50
2022-08-14T11:25:13.976Z,28.80
2022-08-14T11:31:23.633Z,29.30
2022-08-14T11:37:36.916Z,29.80
2022-08-14T11:43:46.898Z,29.40
2022-08-14T11:49:57.934Z,29.50
2022-08-14T11:56:06.103Z,29.50
2022-08-14T12:03:01.251Z,29.80
2022-08-14T12:08:39.164Z,29.20
2022-08-14T12:15:00.123Z,29.10
2022-08-14T12:21:20.185Z,28.70
2022-08-14T12:27:25.004Z,28.20
2022-08-14T12:33:33.400Z,28.40
2022-08-14T12:39:40.189Z,28.70
2022-08-14T12:45:50.445Z,29.10
2022-08-14T12:52:00.594Z,28.70
2022-08-14T12:58:28.720Z,28.50
2022-08-14T13:04:31.241Z,29.00
2022-08-14T13:10:47.537Z,30.00
2022-08-14T13:16:58.734Z,30.00
2022-08-14T13:23:02.397Z,29.70
2022-08-14T13:29:06.372Z,29.90
2022-08-14T13:35:17.587Z,30.30
2022-08-14T13:41:27.998Z,29.80
2022-08-14T13:47:33.761Z,30.20
2022-08-14T13:53:52.619Z,30.90
2022-08-14T14:00:13.337Z,30.20
2022-08-14T14:06:23.357Z,29.60
2022-08-14T14:12:37.858Z,30.30
2022-08-14T14:18:49.200Z,30.70
2022-08-14T14:24:54.552Z,31.30
2022-08-14T14:31:01.103Z,31.70
2022-08-14T14:37:11.174Z,31.90
2022-08-14T14:43:15.481Z,32.00
2022-08-14T14:49:21.984Z,31.70
2022-08-14T14:55:23.901Z,31.60
2022-08-14T15:01:28.725Z,31.10
2022-08-14T15:07:31.974Z,30.50
2022-08-14T15:13:37.587Z,30.50
2022-08-14T15:19:56.876Z,30.60
2022-08-14T15:26:02.056Z,30.80
2022-08-14T15:32:04.767Z,30.50
2022-08-14T15:38:11.096Z,30.30
2022-08-14T15:44:25.275Z,30.20
2022-08-14T15:50:30.366Z,30.30
2022-08-14T15:56:42.460Z,30.40
2022-08-14T16:02:45.254Z,30.50
2022-08-14T16:08:58.805Z,30.60
2022-08-14T16:15:10.224Z,31.00
2022-08-14T16:21:13.772Z,31.20
2022-08-14T16:27:15.580Z,30.90
2022-08-14T16:33:27.878Z,30.50
2022-08-14T16:39:46.607Z,30.30
2022-08-14T16:45:53.891Z,30.20
2022-08-14T16:51:55.978Z,30.20
2022-08-14T16:57:58.717Z,30.10
2022-08-14T17:04:25.337Z,30.30
2022-08-14T17:10:27.881Z,30.30
2022-08-14T17:16:35.949Z,30.10
2022-08-14T17:22:47.475Z,29.70
2022-08-14T17:29:24.075Z,29.40
2022-08-14T17:35:57.737Z,29.20
2022-08-14T17:42:03.238Z,28.90
2022-08-14T17:48:09.994Z,28.80
2022-08-14T17:54:44.522Z,28.70
2022-08-14T18:00:47.800Z,28.50
2022-08-14T18:06:57.887Z,28.40
2022-08-14T18:13:10.724Z,28.30
2022-08-14T18:19:12.733Z,28.20
2022-08-14T18:25:18.246Z,28.10
2022-08-14T18:31:20.809Z,28.00
2022-08-14T18:37:23.063Z,28.00
2022-08-14T18:43:42.156Z,28.00
2022-08-14T18:49:55.099Z,27.90
2022-08-14T18:56:09.326Z,27.90
2022-08-14T19:02:30.251Z,27.80
2022-08-14T19:08:49.636Z,27.70
2022-08-14T19:14:54.070Z,27.70
2022-08-14T19:21:01.498Z,27.70
2022-08-14T19:27:25.162Z,27.60
2022-08-14T19:33:47.561Z,27.50
2022-08-14T19:39:49.312Z,27.40
2022-08-14T19:45:56.096Z,27.20
2022-08-14T19:51:58.029Z,27.20
2022-08-14T19:58:01.453Z,27.20
2022-08-14T20:04:44.945Z,27.00
2022-08-14T20:11:12.379Z,26.90
2022-08-14T20:17:03.184Z,26.90
2022-08-14T20:23:12.434Z,26.70
2022-08-14T20:29:29.943Z,26.50
2022-08-14T20:35:44.140Z,26.40
2022-08-14T20:41:51.200Z,26.30
2022-08-14T20:48:07.344Z,26.20
2022-08-14T20:54:21.069Z,26.10
2022-08-14T21:00:52.133Z,26.00
2022-08-14T21:07:25.726Z,26.00
2022-08-14T21:13:27.680Z,25.90
2022-08-14T21:19:43.924Z,25.80
2022-08-14T21:25:52.489Z,25.60
2022-08-14T21:31:56.453Z,25.60
2022-08-14T21:37:58.662Z,25.70
2022-08-14T21:44:17.634Z,25.60
2022-08-14T21:50:38.756Z,25.70
2022-08-14T21:56:57.847Z,25.80
2022-08-14T22:02:59.837Z,25.80
2022-08-14T22:09:02.310Z,25.80
2022-08-14T22:15:06.522Z,25.70
2022-08-14T22:21:16.575Z,25.70
2022-08-14T22:27:18.901Z,25.70
2022-08-14T22:33:31.038Z,25.70
2022-08-14T22:40:17.272Z,25.60
2022-08-14T22:45:56.572Z,25.60
2022-08-14T22:52:33.126Z,25.60
2022-08-14T22:58:34.664Z,25.50
2022-08-14T23:04:53.958Z,25.50
2022-08-14T23:10:56.350Z,25.30
2022-08-14T23:16:58.153Z,25.30
2022-08-14T23:23:00.159Z,25.30
2022-08-14T23:29:03.120Z,25.30
2022-08-14T23:35:07.258Z,25.30
2022-08-14T23:41:12.717Z,25.20
2022-08-14T23:47:26.212Z,25.30
2022-08-14T23:53:47.755Z,25.30
2022-08-14T23:59:54.842Z,25.40
